Time;durP1;ratioP1;P1;durP2;ratioP2;P2;SDS_P1;SDS_P2;PMS_P1;PMS_P2;Temp;Humidity;BMP_temperature;BMP_pressure;BME280_temperature;BME280_humidity;BME280_pressure;Samples;Min_cycle;Max_cycle;Signal;HPM_P1;HPM_P2
2021/04/19 00:01:05;;;;;;;1.85;1.75;;;13.70;99.90;;;;;;5044854;28;20199;-72
2021/04/19 00:03:32;;;;;;;2.13;1.92;;;13.70;99.90;;;;;;5041398;28;20215;-72
2021/04/19 00:05:58;;;;;;;2.47;2.28;;;13.70;99.90;;;;;;5037239;28;20191;-71
2021/04/19 00:08:25;;;;;;;2.08;1.88;;;13.70;99.90;;;;;;5033907;28;20219;-71
2021/04/19 00:10:52;;;;;;;3.00;2.08;;;13.70;99.90;;;;;;5037300;28;20203;-71
2021/04/19 00:13:18;;;;;;;2.70;2.17;;;13.70;99.90;;;;;;5041235;28;20198;-71
2021/04/19 00:15:45;;;;;;;2.20;2.00;;;13.70;99.90;;;;;;5048067;28;20198;-71
2021/04/19 00:18:12;;;;;;;2.15;1.95;;;13.70;99.90;;;;;;5045875;28;20218;-71
2021/04/19 00:20:38;;;;;;;4.20;2.10;;;13.70;99.90;;;;;;5041398;28;20204;-72
2021/04/19 00:23:04;;;;;;;2.50;2.30;;;13.70;99.90;;;;;;5029585;28;20640;-71
2021/04/19 00:25:31;;;;;;;2.08;1.90;;;13.60;99.90;;;;;;5038049;28;20199;-71
2021/04/19 00:27:57;;;;;;;2.80;2.13;;;13.60;99.90;;;;;;5041635;28;20238;-71
2021/04/19 00:30:24;;;;;;;2.67;1.98;;;13.60;99.90;;;;;;5050624;28;20240;-71
2021/04/19 00:32:50;;;;;;;2.80;1.92;;;13.60;99.90;;;;;;5046425;28;20663;-71
2021/04/19 00:35:17;;;;;;;2.03;1.90;;;13.60;99.90;;;;;;5033668;28;20199;-71
2021/04/19 00:37:44;;;;;;;2.17;1.98;;;13.60;99.90;;;;;;5036175;28;20222;-72
2021/04/19 00:40:14;;;;;;;2.35;2.13;;;13.60;99.90;;;;;;5033392;28;20207;-72
2021/04/19 00:42:41;;;;;;;2.75;2.53;;;13.60;99.90;;;;;;5035574;28;20195;-72
2021/04/19 00:45:09;;;;;;;2.65;2.08;;;13.60;99.90;;;;;;5049718;28;20203;-71
2021/04/19 00:47:36;;;;;;;2.05;1.85;;;13.60;99.90;;;;;;5042615;28;20632;-71
2021/04/19 00:50:03;;;;;;;3.03;2.50;;;13.50;99.90;;;;;;5033458;28;20200;-71
2021/04/19 00:52:31;;;;;;;2.83;2.15;;;13.50;99.90;;;;;;5034434;28;20202;-71
2021/04/19 00:54:59;;;;;;;2.70;2.47;;;13.50;99.90;;;;;;5039973;28;20250;-71
2021/04/19 00:57:25;;;;;;;2.88;2.50;;;13.50;99.90;;;;;;5052428;28;20211;-71
2021/04/19 00:59:51;;;;;;;2.72;2.53;;;13.50;99.90;;;;;;5037012;28;20248;-72
2021/04/19 01:02:18;;;;;;;2.33;2.05;;;13.50;99.90;;;;;;5032587;28;20207;-71
2021/04/19 01:04:44;;;;;;;2.35;2.15;;;13.50;99.90;;;;;;5033454;28;20278;-72
2021/04/19 01:07:11;;;;;;;2.28;2.08;;;13.50;99.90;;;;;;5036571;28;20571;-72
2021/04/19 01:09:38;;;;;;;2.75;2.55;;;13.40;99.90;;;;;;5043178;28;20543;-71
2021/04/19 01:12:05;;;;;;;2.78;2.58;;;13.40;99.90;;;;;;5032980;28;20233;-71
2021/04/19 01:14:31;;;;;;;2.88;2.60;;;13.50;99.90;;;;;;5035070;28;20521;-72
2021/04/19 01:16:58;;;;;;;3.17;2.88;;;13.50;99.90;;;;;;5034553;28;20819;-72
2021/04/19 01:19:24;;;;;;;3.97;3.45;;;13.40;99.90;;;;;;5052571;28;20210;-71
2021/04/19 01:21:51;;;;;;;2.47;2.28;;;13.40;99.90;;;;;;5033470;28;20199;-70
2021/04/19 01:24:17;;;;;;;6.82;4.13;;;13.40;99.90;;;;;;5035172;28;20540;-70
2021/04/19 01:26:43;;;;;;;3.60;3.30;;;13.40;99.90;;;;;;5040942;28;20247;-70
2021/04/19 01:29:09;;;;;;;5.80;4.43;;;13.40;99.90;;;;;;5039032;28;20213;-71
2021/04/19 01:31:36;;;;;;;3.10;2.90;;;13.40;99.90;;;;;;5038633;28;20211;-71
2021/04/19 01:34:02;;;;;;;3.03;2.70;;;13.40;99.90;;;;;;5050037;28;20206;-71
2021/04/19 01:36:28;;;;;;;3.10;2.80;;;13.30;99.90;;;;;;5051301;28;20205;-71
2021/04/19 01:38:55;;;;;;;3.88;3.58;;;13.30;99.90;;;;;;5045007;28;20211;-70
2021/04/19 01:41:21;;;;;;;3.72;3.25;;;13.30;99.90;;;;;;5037184;28;20211;-70
2021/04/19 01:43:47;;;;;;;3.90;3.60;;;13.30;99.90;;;;;;5032586;28;20196;-71
2021/04/19 01:46:14;;;;;;;4.70;4.13;;;13.30;99.90;;;;;;5032080;28;20547;-71
2021/04/19 01:48:40;;;;;;;3.85;3.33;;;13.30;99.90;;;;;;5035199;28;20211;-71
2021/04/19 01:51:06;;;;;;;4.75;4.35;;;13.30;99.90;;;;;;5031748;28;20203;-71
2021/04/19 01:53:33;;;;;;;4.55;4.13;;;13.30;99.90;;;;;;5040193;28;20931;-72
2021/04/19 01:56:00;;;;;;;5.60;3.83;;;13.30;99.90;;;;;;5045786;28;20222;-72
2021/04/19 01:58:27;;;;;;;5.28;4.82;;;13.30;99.90;;;;;;5045177;28;20272;-72
2021/04/19 02:00:56;;;;;;;5.55;5.05;;;13.20;99.90;;;;;;5043525;28;20281;-73
2021/04/19 02:03:46;;;;;;;3.70;3.40;;;13.20;99.90;;;;;;5032916;28;20202;-73
2021/04/19 02:06:21;;;;;;;4.63;4.18;;;13.20;99.90;;;;;;5045853;28;20512;-72
2021/04/19 02:08:55;;;;;;;5.53;5.07;;;13.20;99.90;;;;;;5049856;28;20198;-73
2021/04/19 02:11:32;;;;;;;5.03;4.53;;;13.20;99.90;;;;;;5039237;28;20274;-73
2021/04/19 02:14:06;;;;;;;4.53;3.90;;;13.20;99.90;;;;;;5044858;28;20226;-73
2021/04/19 02:16:45;;;;;;;4.07;3.65;;;13.20;99.90;;;;;;5050100;28;20206;-73
2021/04/19 02:19:17;;;;;;;4.15;3.67;;;13.10;99.90;;;;;;5031312;28;20874;-73
2021/04/19 02:21:46;;;;;;;4.47;4.05;;;13.20;99.90;;;;;;5031888;28;20210;-73
2021/04/19 02:24:16;;;;;;;4.10;3.70;;;13.20;99.90;;;;;;5032025;28;20204;-73
2021/04/19 02:26:49;;;;;;;4.10;3.80;;;13.10;99.90;;;;;;5031528;28;20246;-73
2021/04/19 02:29:19;;;;;;;4.13;3.83;;;13.20;99.90;;;;;;5035557;28;21030;-73
2021/04/19 02:31:54;;;;;;;3.92;3.63;;;13.10;99.90;;;;;;5051504;28;20901;-73
2021/04/19 02:34:22;;;;;;;3.85;3.55;;;13.10;99.90;;;;;;5035397;28;20550;-73
2021/04/19 02:36:50;;;;;;;4.25;3.65;;;13.10;99.90;;;;;;5031412;28;20648;-72
2021/04/19 02:39:17;;;;;;;4.15;3.75;;;13.10;99.90;;;;;;5043456;28;20205;-72
2021/04/19 02:41:48;;;;;;;3.45;3.15;;;13.10;99.90;;;;;;5039313;28;20215;-72
2021/04/19 02:44:17;;;;;;;6.00;4.70;;;13.10;99.90;;;;;;5030652;28;20200;-72
2021/04/19 02:46:44;;;;;;;4.40;4.00;;;13.00;99.90;;;;;;5046559;28;20206;-73
2021/04/19 02:49:12;;;;;;;4.50;3.80;;;13.10;99.90;;;;;;5049039;28;20199;-72
2021/04/19 02:51:39;;;;;;;4.18;3.78;;;13.10;99.90;;;;;;5038710;28;20199;-72
2021/04/19 02:54:06;;;;;;;4.10;3.80;;;13.00;99.90;;;;;;5032799;28;20200;-71
2021/04/19 02:56:35;;;;;;;4.13;3.75;;;13.00;99.90;;;;;;5033250;28;20203;-71
2021/04/19 02:59:06;;;;;;;5.28;3.88;;;13.00;99.90;;;;;;5043645;28;20226;-73
2021/04/19 03:01:35;;;;;;;4.28;3.88;;;13.00;99.90;;;;;;5034218;28;20662;-71
2021/04/19 03:04:06;;;;;;;4.45;4.05;;;13.00;99.90;;;;;;5030763;28;20199;-71
2021/04/19 03:06:35;;;;;;;3.90;3.60;;;13.00;99.90;;;;;;5041606;28;20237;-70
2021/04/19 03:09:05;;;;;;;4.32;3.92;;;13.00;99.90;;;;;;5046977;28;20201;-70
2021/04/19 03:11:34;;;;;;;4.65;4.20;;;13.00;99.90;;;;;;5037099;28;20203;-70
2021/04/19 03:14:04;;;;;;;4.10;3.70;;;13.00;99.90;;;;;;5030590;28;20206;-70
2021/04/19 03:16:33;;;;;;;4.53;4.13;;;13.00;99.90;;;;;;5030678;28;20207;-70
2021/04/19 03:19:03;;;;;;;3.53;3.22;;;13.00;99.90;;;;;;5034699;28;20259;-71
2021/04/19 03:21:34;;;;;;;4.00;3.65;;;13.00;99.90;;;;;;5030476;28;20302;-71
2021/04/19 03:24:01;;;;;;;5.15;4.07;;;13.00;99.90;;;;;;5030780;28;20200;-71
2021/04/19 03:26:32;;;;;;;4.53;3.55;;;13.00;99.90;;;;;;5035757;28;20245;-71
2021/04/19 03:29:00;;;;;;;3.80;3.50;;;12.90;99.90;;;;;;5045751;28;20195;-71
2021/04/19 03:31:31;;;;;;;4.25;3.88;;;12.90;99.90;;;;;;5042241;28;20696;-71
2021/04/19 03:34:04;;;;;;;4.90;4.10;;;12.90;99.90;;;;;;5050614;28;20183;-70
2021/04/19 03:36:33;;;;;;;3.90;3.60;;;12.90;99.90;;;;;;5049524;28;20202;-70
2021/04/19 03:39:01;;;;;;;5.10;4.60;;;12.90;99.90;;;;;;5047014;28;20242;-70
2021/04/19 03:41:29;;;;;;;4.43;4.03;;;12.90;99.90;;;;;;5038964;28;20199;-71
2021/04/19 03:44:00;;;;;;;3.88;3.55;;;12.90;99.90;;;;;;5043167;28;20661;-71
2021/04/19 03:46:30;;;;;;;3.97;3.45;;;12.90;99.90;;;;;;5030074;28;20208;-71
2021/04/19 03:48:59;;;;;;;4.93;4.50;;;12.90;99.90;;;;;;5032811;28;20250;-71
2021/04/19 03:51:26;;;;;;;3.70;3.40;;;12.80;99.90;;;;;;5039803;28;20199;-70
2021/04/19 03:53:54;;;;;;;4.85;4.45;;;12.80;99.90;;;;;;5036822;28;20253;-70
2021/04/19 03:56:22;;;;;;;4.40;3.97;;;12.90;99.90;;;;;;5038775;28;20781;-72
2021/04/19 03:58:51;;;;;;;3.65;3.35;;;12.80;99.90;;;;;;5030777;28;20223;-70
2021/04/19 04:01:19;;;;;;;4.72;4.32;;;12.80;99.90;;;;;;5044485;28;20218;-69
2021/04/19 04:03:47;;;;;;;4.95;4.45;;;12.80;99.90;;;;;;5039919;28;20219;-71
2021/04/19 04:06:15;;;;;;;4.72;4.30;;;12.80;99.90;;;;;;5041095;28;20210;-71
2021/04/19 04:08:42;;;;;;;5.05;4.20;;;12.80;99.90;;;;;;5052880;28;20253;-71
2021/04/19 04:11:10;;;;;;;5.10;4.28;;;12.80;99.90;;;;;;5052682;28;20614;-71
2021/04/19 04:13:36;;;;;;;4.65;4.25;;;12.80;99.90;;;;;;5048579;28;20210;-71
2021/04/19 04:16:03;;;;;;;4.43;4.03;;;12.80;99.90;;;;;;5042925;28;20199;-71
2021/04/19 04:18:29;;;;;;;5.85;4.68;;;12.80;99.90;;;;;;5040404;28;20249;-71
2021/04/19 04:20:56;;;;;;;5.10;4.60;;;12.80;99.90;;;;;;5053138;28;20195;-71
2021/04/19 04:23:23;;;;;;;4.80;4.30;;;12.80;99.90;;;;;;5046659;28;20246;-71
2021/04/19 04:25:49;;;;;;;4.82;4.35;;;12.70;99.90;;;;;;5038722;28;20543;-72
2021/04/19 04:28:16;;;;;;;6.35;5.13;;;12.70;99.90;;;;;;5037000;28;20226;-72
2021/04/19 04:30:43;;;;;;;6.00;5.47;;;12.80;99.90;;;;;;5041620;28;20254;-72
2021/04/19 04:33:10;;;;;;;3.92;3.40;;;12.70;99.90;;;;;;5033358;28;20200;-72
2021/04/19 04:35:38;;;;;;;4.90;4.40;;;12.70;99.90;;;;;;5038372;28;20206;-71
2021/04/19 04:38:06;;;;;;;5.40;5.00;;;12.70;99.90;;;;;;5050529;28;20223;-71
2021/04/19 04:40:33;;;;;;;5.05;4.65;;;12.70;99.90;;;;;;5053381;28;20209;-70
2021/04/19 04:43:03;;;;;;;4.70;4.30;;;12.70;99.90;;;;;;5048424;28;20611;-70
2021/04/19 04:45:30;;;;;;;7.47;5.95;;;12.70;99.90;;;;;;5033832;28;20211;-70
2021/04/19 04:47:59;;;;;;;8.93;6.28;;;12.70;99.90;;;;;;5047112;28;20183;-70
2021/04/19 04:50:35;;;;;;;6.47;4.72;;;12.70;99.90;;;;;;5032908;28;20212;-71
2021/04/19 04:53:06;;;;;;;5.45;4.95;;;12.70;99.90;;;;;;5040794;28;20207;-70
2021/04/19 04:55:34;;;;;;;5.03;4.60;;;12.60;99.90;;;;;;5033525;28;20214;-70
2021/04/19 04:58:02;;;;;;;4.63;4.22;;;12.70;99.90;;;;;;5032889;28;20219;-71
2021/04/19 05:00:29;;;;;;;6.80;5.03;;;12.60;99.90;;;;;;5042958;28;20548;-72
2021/04/19 05:02:57;;;;;;;6.30;5.35;;;12.60;99.90;;;;;;5049072;28;20275;-72
2021/04/19 05:05:24;;;;;;;5.25;4.80;;;12.60;99.90;;;;;;5033002;28;20203;-72
2021/04/19 05:07:52;;;;;;;5.47;4.97;;;12.60;99.90;;;;;;5046627;28;20226;-72
2021/04/19 05:10:20;;;;;;;5.75;5.32;;;12.60;99.90;;;;;;5034345;28;20199;-73
2021/04/19 05:12:46;;;;;;;4.82;4.25;;;12.60;99.90;;;;;;5041378;28;21043;-73
2021/04/19 05:15:13;;;;;;;7.00;6.32;;;12.60;99.90;;;;;;5043631;28;20237;-73
2021/04/19 05:17:40;;;;;;;5.63;5.13;;;12.60;99.90;;;;;;5048366;28;20564;-72
2021/04/19 05:20:08;;;;;;;7.13;5.75;;;12.60;99.90;;;;;;5048148;28;20206;-72
2021/04/19 05:22:34;;;;;;;8.20;5.07;;;12.60;99.90;;;;;;5051608;28;20206;-72
2021/04/19 05:25:00;;;;;;;5.90;5.40;;;12.60;99.90;;;;;;5030670;28;20203;-71
2021/04/19 05:27:28;;;;;;;5.55;5.05;;;12.60;99.90;;;;;;5032024;28;20549;-72
2021/04/19 05:29:54;;;;;;;6.20;5.60;;;12.60;99.90;;;;;;5046371;28;20226;-71
2021/04/19 05:32:22;;;;;;;7.25;6.55;;;12.60;99.90;;;;;;5032547;28;20199;-72
2021/04/19 05:34:49;;;;;;;6.82;6.18;;;12.60;99.90;;;;;;5041416;28;20196;-71
2021/04/19 05:37:17;;;;;;;6.90;6.07;;;12.60;99.90;;;;;;5051876;28;20198;-72
2021/04/19 05:39:44;;;;;;;5.70;5.13;;;12.60;99.90;;;;;;5040999;28;20536;-72
2021/04/19 05:42:13;;;;;;;6.28;5.68;;;12.60;99.90;;;;;;5052587;28;20195;-72
2021/04/19 05:44:41;;;;;;;7.32;5.90;;;12.60;99.90;;;;;;5041141;28;20199;-72
2021/04/19 05:47:08;;;;;;;7.20;6.35;;;12.60;99.90;;;;;;5032158;28;20207;-72
2021/04/19 05:49:34;;;;;;;6.43;5.82;;;12.60;99.90;;;;;;5031648;28;20580;-72
2021/04/19 05:52:03;;;;;;;7.28;6.40;;;12.60;99.90;;;;;;5032106;28;20338;-72
2021/04/19 05:54:30;;;;;;;5.68;5.25;;;12.60;99.90;;;;;;5040127;28;20199;-72
2021/04/19 05:57:08;;;;;;;5.50;5.00;;;12.60;99.90;;;;;;5032497;28;20310;-72
2021/04/19 05:59:44;;;;;;;6.13;5.40;;;12.60;99.90;;;;;;5034881;28;20639;-72
2021/04/19 06:02:14;;;;;;;5.55;4.97;;;12.50;99.90;;;;;;5050035;28;20850;-72
2021/04/19 06:04:54;;;;;;;5.45;4.95;;;12.60;99.90;;;;;;5044777;28;20202;-72
2021/04/19 06:07:26;;;;;;;6.10;5.50;;;12.60;99.90;;;;;;5044408;28;20202;-72
2021/04/19 06:10:01;;;;;;;5.65;5.15;;;12.60;99.90;;;;;;5044809;28;20656;-71
2021/04/19 06:12:32;;;;;;;7.47;6.78;;;12.50;99.90;;;;;;5034788;28;20198;-71
2021/04/19 06:15:03;;;;;;;6.40;5.80;;;12.50;99.90;;;;;;5035809;28;20198;-71
2021/04/19 06:17:31;;;;;;;5.82;5.32;;;12.50;99.90;;;;;;5045365;28;20230;-71
2021/04/19 06:19:58;;;;;;;5.55;5.05;;;12.50;99.90;;;;;;5034058;28;20203;-71
2021/04/19 06:22:24;;;;;;;6.93;6.13;;;12.50;99.90;;;;;;5042118;28;20199;-71
2021/04/19 06:24:52;;;;;;;7.15;6.43;;;12.50;99.90;;;;;;5035628;28;20195;-76
2021/04/19 06:27:19;;;;;;;7.15;6.45;;;12.50;99.90;;;;;;5047748;28;20235;-72
2021/04/19 06:29:46;;;;;;;10.73;9.38;;;12.50;99.90;;;;;;5038333;28;20211;-71
2021/04/19 06:32:14;;;;;;;8.52;7.68;;;12.50;99.90;;;;;;5041848;28;20202;-72
2021/04/19 06:34:41;;;;;;;9.45;7.43;;;12.50;99.90;;;;;;5045268;28;20237;-72
2021/04/19 06:37:08;;;;;;;11.18;9.25;;;12.50;99.90;;;;;;5051671;28;20203;-72
2021/04/19 06:39:34;;;;;;;8.57;7.78;;;12.50;99.90;;;;;;5032231;28;20230;-72
2021/04/19 06:42:02;;;;;;;9.30;8.30;;;12.50;99.90;;;;;;5033209;28;20202;-73
2021/04/19 06:44:29;;;;;;;12.07;9.50;;;12.50;99.90;;;;;;5045534;28;20321;-73
2021/04/19 06:46:58;;;;;;;10.27;9.18;;;12.50;99.90;;;;;;5035227;28;20233;-72
2021/04/19 06:49:25;;;;;;;10.25;9.07;;;12.60;99.90;;;;;;5032149;28;20640;-72
2021/04/19 06:51:54;;;;;;;12.57;11.38;;;12.60;99.90;;;;;;5032403;28;20230;-72
2021/04/19 06:54:20;;;;;;;10.60;9.52;;;12.60;99.90;;;;;;5046541;28;20194;-73
2021/04/19 06:56:47;;;;;;;9.38;8.52;;;12.60;99.90;;;;;;5033828;28;20571;-73
2021/04/19 06:59:15;;;;;;;9.60;7.22;;;12.60;99.90;;;;;;5035160;28;20225;-71
2021/04/19 07:01:42;;;;;;;8.80;7.90;;;12.60;99.90;;;;;;5041946;28;20198;-72
2021/04/19 07:04:11;;;;;;;9.98;8.98;;;12.70;99.90;;;;;;5034076;28;20202;-72
2021/04/19 07:06:39;;;;;;;13.77;12.10;;;12.70;99.90;;;;;;5040899;28;20280;-71
2021/04/19 07:09:17;;;;;;;11.00;10.00;;;12.70;99.90;;;;;;5045131;28;20191;-71
2021/04/19 07:11:45;;;;;;;11.88;10.30;;;12.70;99.90;;;;;;5035789;28;20202;-71
2021/04/19 07:14:14;;;;;;;12.45;10.77;;;12.70;99.90;;;;;;5037190;28;20254;-72
2021/04/19 07:16:41;;;;;;;8.43;7.63;;;12.70;99.90;;;;;;5035136;28;20199;-72
2021/04/19 07:19:07;;;;;;;10.32;9.32;;;12.70;99.90;;;;;;5033796;28;20566;-72
2021/04/19 07:21:34;;;;;;;7.93;7.13;;;12.80;99.90;;;;;;5041600;28;20199;-72
2021/04/19 07:24:02;;;;;;;9.98;9.07;;;13.00;99.90;;;;;;5032676;28;20209;-72
2021/04/19 07:26:29;;;;;;;7.75;6.70;;;13.20;99.90;;;;;;5038528;28;20230;-72
2021/04/19 07:28:56;;;;;;;9.25;7.85;;;13.40;99.90;;;;;;5040356;28;20638;-72
2021/04/19 07:31:22;;;;;;;7.20;6.55;;;13.50;99.90;;;;;;5034872;28;20676;-72
2021/04/19 07:33:48;;;;;;;6.68;6.05;;;13.70;99.90;;;;;;5031395;28;20524;-72
2021/04/19 07:36:26;;;;;;;7.80;7.05;;;13.90;99.90;;;;;;5037370;28;20203;-73
2021/04/19 07:38:53;;;;;;;8.25;7.45;;;14.20;99.90;;;;;;5033823;28;20932;-73
2021/04/19 07:41:20;;;;;;;7.80;7.10;;;14.30;99.90;;;;;;5037530;28;20207;-73
2021/04/19 07:43:47;;;;;;;7.65;6.70;;;14.40;99.90;;;;;;5035851;28;20202;-73
2021/04/19 07:46:16;;;;;;;10.15;8.45;;;14.40;99.90;;;;;;5048751;28;20241;-72
2021/04/19 07:48:45;;;;;;;8.18;6.90;;;14.40;99.90;;;;;;5043763;28;20190;-72
2021/04/19 07:51:26;;;;;;;10.75;7.72;;;14.40;99.90;;;;;;5043686;28;22014;-72
2021/04/19 07:54:17;;;;;;;6.95;6.25;;;14.40;99.90;;;;;;5039539;28;20199;-72
2021/04/19 07:56:46;;;;;;;8.40;7.57;;;14.40;99.90;;;;;;5038415;28;20199;-72
2021/04/19 07:59:23;;;;;;;8.70;7.80;;;14.40;99.90;;;;;;5036568;28;20219;-72
2021/04/19 08:01:56;;;;;;;10.73;9.60;;;14.30;99.90;;;;;;5041046;28;20298;-72
2021/04/19 08:04:23;;;;;;;9.40;8.50;;;14.30;99.90;;;;;;5048659;28;20206;-72
2021/04/19 08:06:49;;;;;;;8.48;7.68;;;14.20;99.90;;;;;;5040997;28;20289;-72
2021/04/19 08:09:15;;;;;;;9.00;8.20;;;14.10;99.90;;;;;;5041978;28;20619;-71
2021/04/19 08:11:45;;;;;;;7.88;7.05;;;14.10;99.90;;;;;;5047575;28;20199;-71
2021/04/19 08:14:12;;;;;;;8.20;7.20;;;14.00;99.90;;;;;;5039085;28;20693;-71
2021/04/19 08:16:39;;;;;;;9.70;7.22;;;14.00;99.90;;;;;;5041040;28;20207;-71
2021/04/19 08:19:06;;;;;;;8.32;7.53;;;13.90;99.90;;;;;;5043750;28;20207;-71
2021/04/19 08:21:33;;;;;;;13.98;9.35;;;13.80;99.90;;;;;;5047484;28;20222;-71
2021/04/19 08:24:11;;;;;;;9.48;8.48;;;13.80;99.90;;;;;;5038694;28;20517;-71
2021/04/19 08:26:52;;;;;;;6.70;6.03;;;13.70;99.90;;;;;;5036088;28;20879;-71
2021/04/19 08:29:41;;;;;;;11.07;6.70;;;13.80;99.90;;;;;;5035468;28;20187;-72
2021/04/19 08:32:08;;;;;;;9.55;8.65;;;13.80;99.90;;;;;;5049888;28;20198;-72
2021/04/19 08:34:35;;;;;;;8.48;7.68;;;13.90;99.90;;;;;;5047728;28;20202;-71
2021/04/19 08:37:02;;;;;;;12.05;8.60;;;13.90;99.90;;;;;;5045149;28;20643;-71
2021/04/19 08:39:30;;;;;;;11.95;10.75;;;13.80;99.90;;;;;;5043675;28;20241;-72
2021/04/19 08:41:59;;;;;;;10.30;9.20;;;13.80;99.90;;;;;;5034587;28;20979;-71
2021/04/19 08:44:28;;;;;;;8.27;7.47;;;13.80;99.90;;;;;;5048376;28;20219;-72
2021/04/19 08:46:55;;;;;;;9.93;8.93;;;14.00;99.90;;;;;;5036891;28;20214;-73
2021/04/19 08:49:22;;;;;;;11.40;10.30;;;14.00;99.90;;;;;;5044779;28;20198;-72
2021/04/19 08:51:48;;;;;;;7.43;6.68;;;14.00;99.90;;;;;;5037411;28;20210;-72
2021/04/19 08:54:14;;;;;;;8.65;7.75;;;14.10;99.90;;;;;;5052249;28;20559;-72
2021/04/19 08:56:41;;;;;;;7.50;6.80;;;14.10;99.90;;;;;;5037864;28;20227;-72
2021/04/19 08:59:08;;;;;;;7.70;6.40;;;14.20;99.90;;;;;;5042910;28;20272;-73
2021/04/19 09:01:35;;;;;;;8.55;6.45;;;14.30;99.90;;;;;;5033471;28;20195;-72
2021/04/19 09:04:03;;;;;;;7.53;6.72;;;14.50;99.90;;;;;;5037317;28;20273;-72
2021/04/19 09:06:40;;;;;;;7.25;6.55;;;14.70;99.90;;;;;;5044553;28;20546;-72
2021/04/19 09:09:07;;;;;;;6.85;6.15;;;14.80;99.90;;;;;;5050330;28;20194;-72
2021/04/19 09:11:33;;;;;;;8.63;7.03;;;14.80;99.90;;;;;;5044487;28;20468;-72
2021/04/19 09:14:05;;;;;;;6.80;6.20;;;14.80;99.90;;;;;;5050379;28;20249;-72
2021/04/19 09:16:36;;;;;;;9.10;7.55;;;14.80;99.90;;;;;;5044641;28;20214;-72
2021/04/19 09:19:04;;;;;;;5.50;4.97;;;14.70;99.90;;;;;;5046910;28;20681;-72
2021/04/19 09:21:39;;;;;;;8.38;6.35;;;14.70;99.90;;;;;;5033276;28;20249;-72
2021/04/19 09:24:07;;;;;;;6.68;5.95;;;14.70;99.90;;;;;;5041877;28;20217;-74
2021/04/19 09:26:47;;;;;;;6.55;5.95;;;14.70;99.90;;;;;;5039330;28;20231;-71
2021/04/19 09:29:45;;;;;;;11.70;8.27;;;14.70;99.90;;;;;;5047639;28;20713;-72
2021/04/19 09:32:23;;;;;;;8.65;7.80;;;14.70;99.90;;;;;;5043954;28;20227;-72
2021/04/19 09:34:52;;;;;;;7.03;6.28;;;14.70;99.90;;;;;;5041121;28;20198;-72
2021/04/19 09:37:20;;;;;;;11.48;6.80;;;14.70;99.90;;;;;;5032659;28;20199;-72
2021/04/19 09:39:52;;;;;;;8.23;7.25;;;14.70;99.90;;;;;;5032106;28;20230;-72
2021/04/19 09:42:39;;;;;;;7.07;6.30;;;14.80;99.90;;;;;;5038926;28;20260;-72
2021/04/19 09:45:07;;;;;;;8.15;7.18;;;14.80;99.90;;;;;;5051208;28;20701;-72
2021/04/19 09:47:52;;;;;;;8.23;7.43;;;14.90;99.90;;;;;;5049071;28;20214;-72
2021/04/19 09:50:21;;;;;;;7.38;6.68;;;14.90;99.90;;;;;;5034113;28;20204;-71
2021/04/19 09:52:49;;;;;;;6.93;6.32;;;15.00;99.90;;;;;;5041625;28;20651;-72
2021/04/19 09:55:16;;;;;;;12.98;8.07;;;15.00;99.90;;;;;;5044210;28;20200;-72
2021/04/19 09:57:43;;;;;;;8.57;7.78;;;15.00;99.90;;;;;;5032445;28;20258;-71
2021/04/19 10:00:11;;;;;;;8.90;8.00;;;15.00;99.90;;;;;;5043363;28;20194;-72
2021/04/19 10:02:41;;;;;;;9.38;8.10;;;15.00;99.90;;;;;;5032808;28;20202;-71
2021/04/19 10:05:09;;;;;;;7.63;6.85;;;15.00;99.90;;;;;;5046318;28;20195;-71
2021/04/19 10:07:40;;;;;;;7.50;6.80;;;15.00;99.90;;;;;;5047843;28;20260;-70
2021/04/19 10:10:08;;;;;;;6.30;5.70;;;15.00;99.90;;;;;;5040227;28;21711;-71
2021/04/19 10:12:41;;;;;;;7.07;6.32;;;15.00;99.90;;;;;;5041001;28;20551;-70
2021/04/19 10:15:17;;;;;;;6.45;5.95;;;14.90;99.90;;;;;;5051446;28;20252;-70
2021/04/19 10:17:44;;;;;;;6.10;5.45;;;14.90;99.90;;;;;;5044449;28;20198;-71
2021/04/19 10:20:16;;;;;;;6.95;6.22;;;14.90;99.90;;;;;;5042905;28;20195;-70
2021/04/19 10:22:42;;;;;;;8.57;7.70;;;14.80;99.90;;;;;;5044344;28;20238;-71
2021/04/19 10:25:09;;;;;;;6.28;5.65;;;14.80;99.90;;;;;;5037749;28;20257;-70
2021/04/19 10:27:36;;;;;;;7.55;6.78;;;14.80;99.90;;;;;;5031074;28;20242;-70
2021/04/19 10:30:10;;;;;;;6.93;6.22;;;14.70;99.90;;;;;;5038466;28;20203;-70
2021/04/19 10:32:37;;;;;;;8.52;7.53;;;14.70;99.90;;;;;;5046972;28;20631;-71
2021/04/19 10:35:03;;;;;;;9.65;8.68;;;14.70;99.90;;;;;;5037684;28;20207;-72
2021/04/19 10:37:29;;;;;;;7.78;6.72;;;14.70;99.90;;;;;;5031392;28;20253;-72
2021/04/19 10:39:57;;;;;;;7.63;6.82;;;14.70;99.90;;;;;;5034979;28;20203;-72
2021/04/19 10:42:27;;;;;;;12.05;9.75;;;14.70;99.90;;;;;;5031130;28;20199;-72
2021/04/19 10:44:54;;;;;;;8.98;8.07;;;14.70;99.90;;;;;;5031053;28;20211;-73
2021/04/19 10:47:27;;;;;;;12.05;10.85;;;14.60;99.90;;;;;;5045748;28;20213;-71
2021/04/19 10:49:54;;;;;;;11.23;10.02;;;14.60;99.90;;;;;;5044607;28;20208;-70
2021/04/19 10:52:21;;;;;;;9.63;8.57;;;14.60;99.90;;;;;;5036301;28;20708;-74
2021/04/19 10:54:48;;;;;;;12.05;10.38;;;14.60;99.90;;;;;;5030707;28;20195;-72
2021/04/19 10:57:22;;;;;;;12.52;10.45;;;14.60;99.90;;;;;;5048473;28;20280;-72
2021/04/19 10:59:49;;;;;;;10.75;9.70;;;14.60;99.90;;;;;;5040754;28;20255;-72
2021/04/19 11:02:21;;;;;;;11.13;10.02;;;14.60;99.90;;;;;;5047524;28;20195;-71
2021/04/19 11:04:48;;;;;;;14.27;11.70;;;14.60;99.90;;;;;;5047412;28;20199;-70
2021/04/19 11:07:26;;;;;;;10.57;9.57;;;14.50;99.90;;;;;;5039933;28;20760;-71
2021/04/19 11:10:13;;;;;;;12.20;11.00;;;14.50;99.90;;;;;;5040713;28;20658;-71
2021/04/19 11:12:39;;;;;;;13.60;9.18;;;14.50;99.90;;;;;;5048856;28;20249;-71
2021/04/19 11:15:09;;;;;;;11.95;10.52;;;14.50;99.90;;;;;;5041179;28;20230;-71
2021/04/19 11:17:36;;;;;;;11.60;9.88;;;14.50;99.90;;;;;;5045101;28;20290;-70
2021/04/19 11:20:19;;;;;;;12.07;9.95;;;14.50;99.90;;;;;;5039900;28;20206;-72
2021/04/19 11:22:46;;;;;;;10.70;9.55;;;14.50;99.90;;;;;;5030323;28;20282;-72
2021/04/19 11:25:15;;;;;;;11.10;9.55;;;14.50;99.90;;;;;;5034276;28;20195;-71
2021/04/19 11:27:42;;;;;;;11.02;9.23;;;14.60;99.90;;;;;;5024748;28;20218;-71
2021/04/19 11:30:28;;;;;;;10.48;9.30;;;14.60;99.90;;;;;;5035193;28;20206;-71
2021/04/19 11:33:02;;;;;;;10.88;9.38;;;14.60;99.90;;;;;;5034957;28;20194;-71
2021/04/19 11:35:37;;;;;;;8.65;7.80;;;14.60;99.90;;;;;;5030113;28;20199;-72
2021/04/19 11:38:06;;;;;;;11.98;8.93;;;14.70;99.90;;;;;;5032964;28;20215;-72
2021/04/19 11:40:35;;;;;;;9.35;8.35;;;14.70;99.90;;;;;;5038716;28;20252;-72
2021/04/19 11:43:19;;;;;;;10.48;9.52;;;14.70;99.90;;;;;;5043610;28;20195;-72
2021/04/19 11:45:45;;;;;;;10.80;9.68;;;14.70;99.90;;;;;;5035328;28;20568;-71
2021/04/19 11:48:13;;;;;;;9.75;8.75;;;14.80;99.90;;;;;;5042568;28;20191;-72
2021/04/19 11:50:39;;;;;;;9.63;8.73;;;14.80;99.90;;;;;;5049894;28;20245;-71
2021/04/19 11:53:07;;;;;;;10.00;9.00;;;14.80;99.90;;;;;;5042678;28;20638;-70
2021/04/19 11:55:33;;;;;;;8.50;7.60;;;14.80;99.90;;;;;;5049483;28;20203;-70
2021/04/19 11:58:00;;;;;;;12.57;8.52;;;14.90;99.90;;;;;;5040818;28;20242;-70
2021/04/19 12:00:27;;;;;;;9.20;8.27;;;14.90;99.90;;;;;;5044217;28;20218;-72
2021/04/19 12:02:53;;;;;;;10.43;6.63;;;14.90;99.90;;;;;;5033701;28;20867;-71
2021/04/19 12:05:20;;;;;;;11.57;10.48;;;14.90;99.90;;;;;;5042963;28;20205;-73
2021/04/19 12:07:46;;;;;;;11.57;7.45;;;15.00;99.90;;;;;;5035653;28;20195;-72
2021/04/19 12:10:14;;;;;;;8.60;7.70;;;15.00;99.90;;;;;;5041766;28;20214;-70
2021/04/19 12:12:40;;;;;;;12.40;8.30;;;14.90;99.90;;;;;;5044062;28;20597;-71
2021/04/19 12:15:07;;;;;;;9.32;8.40;;;14.90;99.90;;;;;;5049911;28;20508;-73
2021/04/19 12:17:33;;;;;;;10.77;8.80;;;14.90;99.90;;;;;;5046067;28;20210;-70
2021/04/19 12:20:00;;;;;;;13.07;9.52;;;14.90;99.90;;;;;;5039794;28;20238;-71
2021/04/19 12:22:26;;;;;;;9.60;8.65;;;14.90;99.90;;;;;;5039676;28;20199;-71
2021/04/19 12:24:52;;;;;;;15.20;9.80;;;14.90;99.90;;;;;;5034676;28;20207;-73
2021/04/19 12:27:19;;;;;;;8.95;8.05;;;14.90;99.90;;;;;;5044083;28;20230;-72
2021/04/19 12:29:45;;;;;;;10.80;9.70;;;14.90;99.90;;;;;;5046274;28;20199;-73
2021/04/19 12:32:12;;;;;;;9.88;8.88;;;14.80;99.90;;;;;;5038070;28;20195;-72
2021/04/19 12:34:38;;;;;;;9.40;8.35;;;14.80;99.90;;;;;;5038750;28;20203;-72
2021/04/19 12:37:04;;;;;;;9.07;8.18;;;14.80;99.90;;;;;;5046019;28;20292;-71
2021/04/19 12:39:30;;;;;;;9.75;8.75;;;14.90;99.90;;;;;;5027497;28;20270;-73
2021/04/19 12:41:56;;;;;;;9.57;8.63;;;14.90;99.90;;;;;;5037761;28;21086;-73
2021/04/19 12:44:24;;;;;;;9.45;8.25;;;14.90;99.90;;;;;;5043513;28;20269;-73
2021/04/19 12:46:51;;;;;;;11.55;10.38;;;15.00;99.90;;;;;;5035590;28;20210;-73
2021/04/19 12:49:19;;;;;;;8.23;7.35;;;15.00;99.90;;;;;;5042851;28;20195;-73
2021/04/19 12:51:46;;;;;;;7.70;7.00;;;15.00;99.90;;;;;;5038746;28;20192;-73
2021/04/19 12:54:12;;;;;;;9.75;8.82;;;15.00;99.90;;;;;;5043448;28;20190;-73